Time;durP1;ratioP1;P1;durP2;ratioP2;P2;SDS_P1;SDS_P2;PMS_P1;PMS_P2;Temp;Humidity;BMP_temperature;BMP_pressure;BME280_temperature;BME280_humidity;BME280_pressure;Samples;Min_cycle;Max_cycle;Signal;HPM_P1;HPM_P2
2022/06/16 00:00:26;;;;;;;7.37;6.67;;;16.90;99.90;;;;;;5051894;28;20537;-70
2022/06/16 00:02:53;;;;;;;7.13;6.43;;;16.90;99.90;;;;;;5052723;28;20502;-70
2022/06/16 00:05:23;;;;;;;7.33;6.63;;;16.90;99.90;;;;;;5052195;28;20980;-68
2022/06/16 00:07:52;;;;;;;8.53;7.60;;;16.90;99.90;;;;;;5052554;28;20499;-68
2022/06/16 00:10:20;;;;;;;7.73;6.93;;;16.90;99.90;;;;;;5051924;28;20535;-67
2022/06/16 00:12:47;;;;;;;8.20;6.80;;;16.80;99.90;;;;;;5052276;28;20501;-68
2022/06/16 00:15:16;;;;;;;7.60;6.23;;;16.70;99.90;;;;;;5052070;28;20883;-67
2022/06/16 00:17:43;;;;;;;7.73;6.67;;;16.60;99.90;;;;;;5052591;28;20535;-68
2022/06/16 00:20:11;;;;;;;8.13;7.30;;;16.60;99.90;;;;;;5051314;28;20939;-70
2022/06/16 00:22:39;;;;;;;7.30;6.60;;;16.50;99.90;;;;;;5052312;28;20471;-68
2022/06/16 00:25:08;;;;;;;8.67;7.23;;;16.40;99.90;;;;;;5051761;28;20981;-68
2022/06/16 00:27:35;;;;;;;8.40;6.30;;;16.40;99.90;;;;;;5052349;28;20479;-68
2022/06/16 00:30:02;;;;;;;6.57;5.97;;;16.40;99.90;;;;;;5051435;28;20471;-69
2022/06/16 00:32:29;;;;;;;7.13;6.00;;;16.40;99.90;;;;;;5051948;28;20526;-68
2022/06/16 00:34:58;;;;;;;8.07;7.27;;;16.30;99.90;;;;;;5051667;28;20540;-71
2022/06/16 00:37:24;;;;;;;7.57;6.77;;;16.40;99.90;;;;;;5051930;28;21009;-71
2022/06/16 00:39:51;;;;;;;6.63;5.93;;;16.40;99.90;;;;;;5051353;28;20858;-70
2022/06/16 00:42:21;;;;;;;7.43;6.43;;;16.30;99.90;;;;;;5051563;28;20922;-71
2022/06/16 00:44:51;;;;;;;7.13;6.10;;;16.40;99.90;;;;;;5051299;28;20448;-71
2022/06/16 00:47:20;;;;;;;9.07;7.07;;;16.30;99.90;;;;;;5051903;28;20570;-69
2022/06/16 00:49:48;;;;;;;7.37;6.67;;;16.30;99.90;;;;;;5050902;28;20451;-68
2022/06/16 00:52:17;;;;;;;9.30;6.60;;;16.20;99.90;;;;;;5051670;28;20470;-70
2022/06/16 00:54:51;;;;;;;8.60;7.00;;;16.10;99.90;;;;;;5050016;28;20476;-70
2022/06/16 00:57:23;;;;;;;8.43;6.67;;;16.10;99.90;;;;;;5051709;28;20539;-70
2022/06/16 00:59:51;;;;;;;8.60;7.10;;;16.10;99.90;;;;;;5051444;28;20579;-70
2022/06/16 01:02:19;;;;;;;8.53;7.40;;;16.00;99.90;;;;;;5051602;28;20470;-70
2022/06/16 01:04:53;;;;;;;9.63;8.67;;;16.00;99.90;;;;;;5051542;28;20496;-69
2022/06/16 01:07:25;;;;;;;9.67;8.67;;;16.00;99.90;;;;;;5051711;28;20446;-70
2022/06/16 01:09:54;;;;;;;8.60;7.43;;;16.00;99.90;;;;;;5051007;28;20523;-68
2022/06/16 01:15:38;;;;;;;10.53;8.73;;;16.00;99.90;;;;;;5051310;28;20423;-70
2022/06/16 01:18:13;;;;;;;8.93;7.90;;;16.00;99.90;;;;;;5051535;28;20498;-70
2022/06/16 01:20:45;;;;;;;8.43;7.53;;;16.00;99.90;;;;;;5050809;28;20569;-70
2022/06/16 01:23:44;;;;;;;9.07;8.17;;;16.00;99.90;;;;;;5051382;28;20444;-70
2022/06/16 01:26:38;;;;;;;8.97;8.07;;;15.90;99.90;;;;;;5050986;28;20475;-70
2022/06/16 01:29:11;;;;;;;9.93;9.03;;;15.90;99.90;;;;;;5051250;28;20480;-70
2022/06/16 01:31:44;;;;;;;9.90;8.90;;;15.90;99.90;;;;;;5050379;28;20492;-70
2022/06/16 01:34:18;;;;;;;10.23;8.27;;;16.00;99.90;;;;;;5051066;28;20539;-70
2022/06/16 01:36:51;;;;;;;9.30;8.37;;;15.90;99.90;;;;;;5050919;28;20460;-70
2022/06/16 01:39:25;;;;;;;11.00;9.10;;;15.90;99.90;;;;;;5050619;28;20517;-71
2022/06/16 01:41:59;;;;;;;10.57;9.60;;;15.80;99.90;;;;;;5049721;28;20555;-70
2022/06/16 01:44:32;;;;;;;9.40;8.50;;;15.80;99.90;;;;;;5050294;28;20444;-70
2022/06/16 01:47:03;;;;;;;11.70;9.60;;;15.70;99.90;;;;;;5050646;28;20444;-70
2022/06/16 01:49:34;;;;;;;8.67;7.87;;;15.70;99.90;;;;;;5050432;28;20478;-70
2022/06/16 01:52:07;;;;;;;10.13;9.23;;;15.60;99.90;;;;;;5049592;28;21000;-70
2022/06/16 01:54:37;;;;;;;10.33;9.33;;;15.70;99.90;;;;;;5050293;28;20455;-70
2022/06/16 01:57:10;;;;;;;13.10;8.87;;;15.50;99.90;;;;;;5050785;28;20479;-71
2022/06/16 01:59:42;;;;;;;9.80;8.90;;;15.30;99.90;;;;;;5050539;28;20487;-70
2022/06/16 02:02:14;;;;;;;10.60;9.07;;;15.30;99.90;;;;;;5050004;28;20550;-70
2022/06/16 02:04:49;;;;;;;9.60;8.70;;;15.40;99.90;;;;;;5050127;28;20531;-70
2022/06/16 02:07:19;;;;;;;10.63;9.57;;;15.40;99.90;;;;;;5050017;28;20450;-71
2022/06/16 02:09:50;;;;;;;9.30;8.40;;;15.40;99.90;;;;;;5049718;28;20440;-68
2022/06/16 02:15:12;;;;;;;10.83;9.20;;;15.20;99.90;;;;;;5048838;28;20784;-68
2022/06/16 02:17:39;;;;;;;9.80;8.90;;;15.20;99.90;;;;;;5050427;28;20871;-69
2022/06/16 02:20:06;;;;;;;10.73;9.73;;;15.20;99.90;;;;;;5049246;28;20508;-69
2022/06/16 02:22:34;;;;;;;9.93;9.03;;;15.20;99.90;;;;;;5050000;28;20495;-70
2022/06/16 02:25:02;;;;;;;11.37;10.17;;;15.10;99.90;;;;;;5049537;28;20938;-69
2022/06/16 02:27:29;;;;;;;10.67;9.67;;;15.20;99.90;;;;;;5049948;28;20440;-69
2022/06/16 02:29:55;;;;;;;15.20;10.43;;;15.20;99.90;;;;;;5049411;28;20539;-69
2022/06/16 02:32:39;;;;;;;9.43;8.53;;;15.20;99.90;;;;;;5049764;28;20547;-69
2022/06/16 02:35:17;;;;;;;9.73;8.83;;;15.10;99.90;;;;;;5049545;28;20444;-69
2022/06/16 02:37:57;;;;;;;11.33;10.23;;;15.00;99.90;;;;;;5049678;28;20489;-70
2022/06/16 02:40:49;;;;;;;11.17;10.07;;;15.00;99.90;;;;;;5048817;28;20487;-71
2022/06/16 02:43:28;;;;;;;16.40;10.60;;;15.00;99.90;;;;;;5049696;28;20981;-70
2022/06/16 02:46:00;;;;;;;12.13;10.17;;;15.10;99.90;;;;;;5049274;28;20989;-68
2022/06/16 02:48:36;;;;;;;10.00;9.20;;;15.10;99.90;;;;;;5049646;28;20530;-70
2022/06/16 02:51:11;;;;;;;13.70;11.13;;;15.10;99.90;;;;;;5048783;28;20446;-70
2022/06/16 02:53:44;;;;;;;11.20;9.93;;;15.00;99.90;;;;;;5049729;28;20541;-68
2022/06/16 02:56:20;;;;;;;11.07;9.83;;;15.00;99.90;;;;;;5049270;28;20474;-69
2022/06/16 02:58:49;;;;;;;10.93;9.90;;;15.00;99.90;;;;;;5049835;28;20447;-70
2022/06/16 03:01:18;;;;;;;11.00;9.80;;;14.90;99.90;;;;;;5048716;28;20574;-70
2022/06/16 03:04:01;;;;;;;10.90;9.77;;;14.90;99.90;;;;;;5049639;28;20494;-70
2022/06/16 03:06:28;;;;;;;10.60;9.60;;;14.90;99.90;;;;;;5049046;28;20455;-69
2022/06/16 03:08:57;;;;;;;11.27;9.77;;;14.90;99.90;;;;;;5049220;28;20464;-69
2022/06/16 03:11:23;;;;;;;11.53;10.33;;;14.90;99.90;;;;;;5048823;28;20456;-69
2022/06/16 03:13:50;;;;;;;11.67;10.57;;;15.00;99.90;;;;;;5049680;28;20455;-70
2022/06/16 03:16:17;;;;;;;11.13;10.13;;;14.90;99.90;;;;;;5049082;28;20444;-70
2022/06/16 03:18:44;;;;;;;10.97;9.93;;;15.00;99.90;;;;;;5051870;28;20475;-69
2022/06/16 03:21:13;;;;;;;11.03;9.97;;;14.90;99.90;;;;;;5052413;28;20498;-70
2022/06/16 03:23:39;;;;;;;12.00;10.80;;;14.80;99.90;;;;;;5053532;28;20479;-69
2022/06/16 03:26:06;;;;;;;11.70;10.50;;;14.80;99.90;;;;;;5053038;28;20444;-70
2022/06/16 03:28:33;;;;;;;11.03;9.80;;;14.90;99.90;;;;;;5053180;28;20450;-70
2022/06/16 03:31:00;;;;;;;11.47;10.40;;;14.80;99.90;;;;;;5052408;28;20444;-70
2022/06/16 03:33:27;;;;;;;10.90;9.90;;;14.80;99.90;;;;;;5053162;28;20524;-70
2022/06/16 03:35:54;;;;;;;13.17;10.33;;;14.80;99.90;;;;;;5052755;28;20450;-70
2022/06/16 03:38:25;;;;;;;10.17;9.27;;;14.90;99.90;;;;;;5053435;28;20463;-70
2022/06/16 03:40:51;;;;;;;11.63;10.50;;;14.90;99.90;;;;;;5052529;28;20533;-70
2022/06/16 03:43:18;;;;;;;10.10;9.20;;;14.90;99.90;;;;;;5054008;28;20449;-67
2022/06/16 03:45:45;;;;;;;10.90;9.80;;;14.90;99.90;;;;;;5052932;28;20834;-69
2022/06/16 03:48:12;;;;;;;12.17;9.70;;;14.90;99.90;;;;;;5053317;28;20481;-69
2022/06/16 03:50:40;;;;;;;11.20;10.00;;;15.00;99.90;;;;;;5052266;28;20535;-69
2022/06/16 03:53:07;;;;;;;11.57;10.47;;;15.10;99.90;;;;;;5053281;28;20482;-69
2022/06/16 03:55:35;;;;;;;10.10;9.10;;;15.10;99.90;;;;;;5052857;28;20463;-69
2022/06/16 03:58:02;;;;;;;11.43;10.33;;;15.20;99.90;;;;;;5053149;28;20458;-70
2022/06/16 04:00:30;;;;;;;11.20;10.20;;;15.20;99.90;;;;;;5052100;28;20871;-69
2022/06/16 04:05:39;;;;;;;11.30;10.10;;;15.30;99.90;;;;;;5051314;28;20470;-69
2022/06/16 04:08:07;;;;;;;13.87;10.47;;;15.40;99.90;;;;;;5052687;28;20466;-70
2022/06/16 04:10:35;;;;;;;10.40;9.50;;;15.60;99.90;;;;;;5051689;28;20451;-70
2022/06/16 04:13:03;;;;;;;11.97;10.77;;;15.70;99.90;;;;;;5051426;28;20455;-69
2022/06/16 04:15:30;;;;;;;9.83;8.93;;;15.80;99.90;;;;;;5052233;28;20448;-69
2022/06/16 04:17:56;;;;;;;10.97;9.93;;;16.00;99.90;;;;;;5052456;28;20446;-70
2022/06/16 04:20:24;;;;;;;9.50;8.43;;;16.40;99.90;;;;;;5050715;28;20486;-69
2022/06/16 04:22:51;;;;;;;10.57;9.67;;;16.60;99.90;;;;;;5052235;28;20478;-70
2022/06/16 04:25:20;;;;;;;10.97;9.90;;;16.80;99.90;;;;;;5051981;28;20444;-69
2022/06/16 04:27:49;;;;;;;10.77;9.67;;;16.90;99.90;;;;;;5052330;28;21015;-70
2022/06/16 04:30:18;;;;;;;10.80;9.80;;;17.10;99.90;;;;;;5051137;28;20451;-69
2022/06/16 04:32:45;;;;;;;9.67;8.60;;;17.30;99.90;;;;;;5052150;28;20479;-70
2022/06/16 04:35:12;;;;;;;10.07;9.00;;;17.60;99.90;;;;;;5051723;28;20448;-69
2022/06/16 04:37:39;;;;;;;11.03;9.60;;;17.60;99.90;;;;;;5051993;28;20539;-70
2022/06/16 04:40:07;;;;;;;9.63;8.80;;;17.60;99.90;;;;;;5050990;28;20482;-70
2022/06/16 04:42:34;;;;;;;11.90;9.97;;;17.70;99.90;;;;;;5052128;28;20468;-70
2022/06/16 04:45:02;;;;;;;10.53;9.53;;;17.80;99.90;;;;;;5051521;28;20555;-70
2022/06/16 04:47:29;;;;;;;9.43;8.43;;;17.90;99.90;;;;;;5051917;28;20450;-70
2022/06/16 04:49:56;;;;;;;10.60;8.40;;;18.10;99.90;;;;;;5050906;28;20444;-70
2022/06/16 04:52:23;;;;;;;9.80;8.80;;;18.40;99.90;;;;;;5051650;28;20466;-70
2022/06/16 04:54:50;;;;;;;9.17;8.37;;;18.50;99.90;;;;;;5051175;28;20456;-68
2022/06/16 04:57:17;;;;;;;9.47;8.67;;;18.70;99.90;;;;;;5051855;28;20505;-70
2022/06/16 04:59:44;;;;;;;10.07;9.17;;;18.80;99.90;;;;;;5051310;28;20455;-68
2022/06/16 05:02:12;;;;;;;9.53;8.63;;;18.90;99.90;;;;;;5051099;28;20513;-70
2022/06/16 05:04:39;;;;;;;9.37;8.40;;;18.90;99.90;;;;;;5051107;28;20451;-70
2022/06/16 05:07:07;;;;;;;9.40;8.60;;;18.90;99.90;;;;;;5051363;28;20460;-70
2022/06/16 05:09:34;;;;;;;9.77;8.87;;;18.90;99.90;;;;;;5051411;28;20493;-70
2022/06/16 05:12:01;;;;;;;10.03;8.97;;;18.90;99.90;;;;;;5050591;28;20478;-70
2022/06/16 05:14:28;;;;;;;9.80;8.20;;;19.00;99.90;;;;;;5050911;28;20448;-70
2022/06/16 05:16:54;;;;;;;8.50;7.70;;;19.00;99.90;;;;;;5051257;28;20448;-70
2022/06/16 05:19:23;;;;;;;8.50;7.80;;;19.00;99.90;;;;;;5050972;28;20448;-70
2022/06/16 05:21:50;;;;;;;8.87;7.90;;;19.10;99.90;;;;;;5050102;28;20483;-70
2022/06/16 05:24:16;;;;;;;8.93;7.80;;;19.10;99.90;;;;;;5050875;28;20475;-67
2022/06/16 05:26:43;;;;;;;8.53;7.67;;;19.10;99.90;;;;;;5051387;28;20444;-70
2022/06/16 05:29:10;;;;;;;8.40;7.63;;;19.10;99.90;;;;;;5051840;28;20843;-70
2022/06/16 05:31:38;;;;;;;8.37;7.57;;;19.20;99.90;;;;;;5050174;28;20838;-67
2022/06/16 05:34:05;;;;;;;7.47;6.83;;;19.30;99.90;;;;;;5050891;28;20452;-69
2022/06/16 05:36:33;;;;;;;8.77;8.00;;;19.40;99.90;;;;;;5050825;28;20953;-70
2022/06/16 05:39:00;;;;;;;10.30;9.37;;;19.60;99.90;;;;;;5050920;28;20452;-69
2022/06/16 05:41:27;;;;;;;9.83;8.93;;;19.70;99.90;;;;;;5049224;28;20506;-70
2022/06/16 05:43:53;;;;;;;8.87;8.13;;;19.80;99.90;;;;;;5050679;28;20440;-69
2022/06/16 05:46:22;;;;;;;8.27;7.50;;;20.20;99.90;;;;;;5050213;28;20456;-71
2022/06/16 05:48:50;;;;;;;9.77;8.77;;;20.60;99.90;;;;;;5050446;28;20452;-69
2022/06/16 05:51:18;;;;;;;9.73;8.80;;;20.80;99.90;;;;;;5049617;28;20693;-70
2022/06/16 05:53:47;;;;;;;10.10;8.60;;;21.20;99.90;;;;;;5050673;28;20823;-70
2022/06/16 05:56:14;;;;;;;8.10;7.30;;;21.20;99.90;;;;;;5050064;28;20450;-69
2022/06/16 05:58:42;;;;;;;8.17;7.37;;;21.50;99.90;;;;;;5050454;28;20455;-70
2022/06/16 06:01:10;;;;;;;8.00;7.33;;;21.80;99.90;;;;;;5049413;28;20498;-70
2022/06/16 06:03:37;;;;;;;7.33;6.73;;;21.70;99.90;;;;;;5050179;28;20453;-70
2022/06/16 06:06:04;;;;;;;9.53;7.67;;;21.70;99.90;;;;;;5049897;28;21165;-70
2022/06/16 06:16:55;;;;;;;7.67;6.97;;;21.50;99.90;;;;;;5050469;28;20457;-70
2022/06/16 06:19:25;;;;;;;6.97;6.27;;;21.50;99.90;;;;;;5050429;28;20450;-70
2022/06/16 06:22:00;;;;;;;6.90;6.30;;;21.50;99.90;;;;;;5049513;28;20502;-69
2022/06/16 06:24:29;;;;;;;8.10;7.20;;;21.60;99.90;;;;;;5049983;28;20493;-70
2022/06/16 06:27:00;;;;;;;7.87;7.07;;;21.60;99.90;;;;;;5050445;28;20463;-70
2022/06/16 06:29:27;;;;;;;7.00;6.40;;;21.70;99.90;;;;;;5050268;28;20937;-70
2022/06/16 06:31:53;;;;;;;9.30;7.43;;;21.70;99.90;;;;;;5049393;28;20460;-70
2022/06/16 06:34:22;;;;;;;8.30;7.50;;;21.70;99.90;;;;;;5049756;28;20448;-70
2022/06/16 06:36:48;;;;;;;6.90;6.30;;;21.80;99.90;;;;;;5049992;28;20479;-70
2022/06/16 06:39:15;;;;;;;7.50;6.80;;;21.80;99.90;;;;;;5050233;28;20452;-70
2022/06/16 06:41:42;;;;;;;8.43;6.93;;;22.00;99.90;;;;;;5048955;28;20483;-70
2022/06/16 06:44:10;;;;;;;8.30;6.43;;;22.30;99.90;;;;;;5050304;28;20450;-70
2022/06/16 06:46:37;;;;;;;6.60;6.10;;;22.80;99.90;;;;;;5049661;28;20448;-70
2022/06/16 06:49:04;;;;;;;6.67;5.50;;;23.10;99.90;;;;;;5049915;28;20448;-70
2022/06/16 06:51:32;;;;;;;6.67;5.97;;;23.40;99.90;;;;;;5048684;28;20472;-70
2022/06/16 06:53:59;;;;;;;7.00;6.40;;;23.60;99.90;;;;;;5049749;28;20513;-70
2022/06/16 06:56:27;;;;;;;7.43;6.73;;;23.70;99.90;;;;;;5049330;28;20543;-70
2022/06/16 06:58:54;;;;;;;6.10;5.50;;;23.70;99.90;;;;;;5049634;28;20976;-70
2022/06/16 07:01:22;;;;;;;9.70;5.90;;;23.70;99.90;;;;;;5048737;28;20480;-70
2022/06/16 07:03:50;;;;;;;8.67;6.03;;;23.80;99.90;;;;;;5049400;28;20466;-70
2022/06/16 07:06:18;;;;;;;6.30;5.77;;;23.70;99.90;;;;;;5049059;28;20513;-70
2022/06/16 07:08:46;;;;;;;7.77;6.93;;;23.80;99.90;;;;;;5049405;28;20984;-70
2022/06/16 07:11:14;;;;;;;6.87;6.13;;;23.60;99.90;;;;;;5048544;28;20456;-70
2022/06/16 07:13:41;;;;;;;8.33;5.90;;;23.40;99.90;;;;;;5049424;28;20448;-69
2022/06/16 07:16:09;;;;;;;7.40;6.40;;;23.30;99.90;;;;;;5049519;28;20841;-69
2022/06/16 07:18:37;;;;;;;7.30;5.90;;;23.30;99.90;;;;;;5049269;28;20455;-70
2022/06/16 07:21:05;;;;;;;6.77;6.17;;;23.30;99.90;;;;;;5048560;28;20479;-70
2022/06/16 07:23:32;;;;;;;8.97;6.43;;;23.30;99.90;;;;;;5049332;28;20494;-70
2022/06/16 07:25:59;;;;;;;7.40;6.43;;;23.40;99.90;;;;;;5048746;28;20965;-69
2022/06/16 07:28:26;;;;;;;6.80;6.20;;;23.40;99.90;;;;;;5049187;28;20452;-69
2022/06/16 07:30:53;;;;;;;8.37;6.63;;;23.30;99.90;;;;;;5048467;28;20444;-69
2022/06/16 07:33:20;;;;;;;7.40;6.70;;;23.20;99.90;;;;;;5049447;28;20534;-69
2022/06/16 07:35:48;;;;;;;7.00;6.30;;;23.40;99.90;;;;;;5049038;28;20540;-70
2022/06/16 07:38:15;;;;;;;6.63;6.10;;;23.50;99.90;;;;;;5049545;28;20835;-70
2022/06/16 07:40:41;;;;;;;9.10;7.00;;;23.70;99.90;;;;;;5048493;28;21033;-70
2022/06/16 07:43:08;;;;;;;6.97;6.27;;;23.80;99.90;;;;;;5049132;28;20475;-70
2022/06/16 07:45:37;;;;;;;7.07;6.37;;;24.00;99.90;;;;;;5048636;28;20460;-69
2022/06/16 07:48:06;;;;;;;7.77;6.40;;;24.00;99.90;;;;;;5049036;28;20539;-70
2022/06/16 07:50:36;;;;;;;6.90;6.20;;;24.00;99.90;;;;;;5048325;28;20444;-69
2022/06/16 07:53:05;;;;;;;7.63;6.53;;;24.20;99.90;;;;;;5048949;28;20468;-71
2022/06/16 07:55:33;;;;;;;6.10;5.60;;;24.30;99.90;;;;;;5048692;28;20448;-70
2022/06/16 07:58:00;;;;;;;8.67;6.63;;;24.40;99.80;;;;;;5049095;28;20448;-69
2022/06/16 08:00:31;;;;;;;7.33;6.33;;;24.30;99.90;;;;;;5048444;28;20541;-69
2022/06/16 08:02:58;;;;;;;9.00;6.07;;;24.30;99.90;;;;;;5049249;28;20487;-70
2022/06/16 08:05:25;;;;;;;7.10;6.40;;;24.40;99.90;;;;;;5051926;28;20454;-70
2022/06/16 08:07:52;;;;;;;8.47;6.60;;;24.30;99.20;;;;;;5052571;28;20456;-69
2022/06/16 08:10:23;;;;;;;7.63;6.07;;;24.30;99.20;;;;;;5051857;28;20493;-70
2022/06/16 08:12:50;;;;;;;6.60;5.97;;;24.30;99.50;;;;;;5052612;28;20474;-68
2022/06/16 08:15:17;;;;;;;6.13;5.53;;;24.60;98.80;;;;;;5052192;28;20489;-69
2022/06/16 08:17:48;;;;;;;8.53;5.60;;;24.90;98.30;;;;;;5052497;28;20447;-69
2022/06/16 08:20:15;;;;;;;6.80;6.10;;;25.30;98.00;;;;;;5051471;28;20454;-69
2022/06/16 08:22:42;;;;;;;6.50;5.40;;;25.70;97.60;;;;;;5052029;28;21186;-70
2022/06/16 08:25:11;;;;;;;6.97;5.40;;;26.00;97.20;;;;;;5051719;28;20447;-70
2022/06/16 08:27:41;;;;;;;5.90;5.30;;;26.20;96.70;;;;;;5052234;28;20814;-69
2022/06/16 08:30:13;;;;;;;5.60;5.10;;;26.30;96.50;;;;;;5051364;28;20452;-69
2022/06/16 08:32:40;;;;;;;6.80;6.17;;;26.40;95.90;;;;;;5052051;28;20471;-69
2022/06/16 08:35:08;;;;;;;7.37;6.40;;;26.70;96.10;;;;;;5051614;28;20843;-70
2022/06/16 08:37:35;;;;;;;6.50;5.90;;;26.50;94.70;;;;;;5051853;28;20443;-69
2022/06/16 08:40:02;;;;;;;5.90;5.00;;;26.20;96.10;;;;;;5051007;28;20440;-70
2022/06/16 08:42:38;;;;;;;6.93;5.53;;;26.00;96.50;;;;;;5051846;28;20492;-70
2022/06/16 08:45:17;;;;;;;5.47;4.97;;;25.90;96.00;;;;;;5051524;28;20444;-70
2022/06/16 08:47:50;;;;;;;6.40;5.80;;;25.80;94.90;;;;;;5051842;28;20822;-70
2022/06/16 08:50:26;;;;;;;12.23;5.07;;;25.70;94.80;;;;;;5051013;28;20483;-70
2022/06/16 08:53:04;;;;;;;6.87;6.00;;;25.90;95.20;;;;;;5051888;28;20831;-71
2022/06/16 08:55:37;;;;;;;8.03;5.07;;;26.10;94.60;;;;;;5051471;28;20530;-70
2022/06/16 08:58:14;;;;;;;7.37;5.77;;;26.10;94.80;;;;;;5051850;28;20446;-70
2022/06/16 09:00:46;;;;;;;6.17;5.57;;;26.30;93.30;;;;;;5050909;28;21117;-69
2022/06/16 09:03:21;;;;;;;6.40;5.53;;;26.20;93.50;;;;;;5051996;28;20900;-70
2022/06/16 09:05:54;;;;;;;6.73;6.07;;;26.20;93.60;;;;;;5051413;28;20961;-70
2022/06/16 09:08:40;;;;;;;6.83;6.23;;;26.30;94.80;;;;;;5051670;28;20809;-70
2022/06/16 09:11:14;;;;;;;7.70;7.00;;;26.20;94.60;;;;;;5050814;28;20850;-69
2022/06/16 09:14:14;;;;;;;7.67;6.80;;;26.00;95.20;;;;;;5051771;28;20450;-69
2022/06/16 09:16:48;;;;;;;6.73;6.20;;;25.60;95.60;;;;;;5050381;28;20448;-70
2022/06/16 09:19:35;;;;;;;8.23;7.43;;;25.50;95.50;;;;;;5051548;28;20439;-69
2022/06/16 09:22:13;;;;;;;8.47;6.67;;;25.40;96.10;;;;;;5050653;28;20498;-69
2022/06/16 09:25:00;;;;;;;7.10;6.40;;;25.40;96.80;;;;;;5051092;28;20977;-70
2022/06/16 09:27:34;;;;;;;8.03;6.30;;;25.60;96.70;;;;;;5051198;28;20454;-71
2022/06/16 09:30:05;;;;;;;13.10;6.70;;;25.80;95.60;;;;;;5050185;28;21004;-71
2022/06/16 09:32:39;;;;;;;9.53;6.90;;;25.90;95.90;;;;;;5050962;28;20507;-69
2022/06/16 09:35:12;;;;;;;7.20;6.60;;;26.00;95.80;;;;;;5050615;28;20448;-69
2022/06/16 09:37:50;;;;;;;7.80;7.10;;;26.10;95.80;;;;;;5050769;28;20459;-71
2022/06/16 09:40:22;;;;;;;8.13;6.80;;;26.10;94.70;;;;;;5049910;28;20451;-70
2022/06/16 09:42:56;;;;;;;7.70;6.67;;;26.20;95.40;;;;;;5050547;28;20487;-70
2022/06/16 09:45:27;;;;;;;9.60;6.10;;;26.40;94.40;;;;;;5050344;28;21206;-70
2022/06/16 09:48:05;;;;;;;7.23;6.53;;;26.50;93.80;;;;;;5050829;28;20447;-70
2022/06/16 09:50:43;;;;;;;7.50;6.83;;;26.60;94.70;;;;;;5049817;28;20531;-70
2022/06/16 09:53:15;;;;;;;8.00;6.90;;;26.60;94.40;;;;;;5050418;28;20972;-71
2022/06/16 09:55:47;;;;;;;7.43;6.30;;;26.60;94.50;;;;;;5050271;28;20502;-70
2022/06/16 09:58:23;;;;;;;12.60;6.83;;;26.70;94.00;;;;;;5050476;28;20451;-71
2022/06/16 10:00:53;;;;;;;9.07;6.97;;;26.80;93.50;;;;;;5049340;28;20447;-71
2022/06/16 10:03:28;;;;;;;7.00;6.40;;;27.10;93.10;;;;;;5050250;28;21040;-70
2022/06/16 10:06:08;;;;;;;6.63;6.03;;;27.50;93.00;;;;;;5050200;28;20820;-70
2022/06/16 10:08:46;;;;;;;7.00;6.40;;;28.20;92.70;;;;;;5050371;28;20839;-70
2022/06/16 10:11:26;;;;;;;6.10;5.47;;;28.60;91.20;;;;;;5049421;28;20827;-70
2022/06/16 10:14:00;;;;;;;7.03;6.43;;;28.80;91.00;;;;;;5050290;28;20892;-70
2022/06/16 10:16:36;;;;;;;6.60;6.00;;;29.20;90.50;;;;;;5050389;28;20813;-68
2022/06/16 10:19:06;;;;;;;6.97;5.57;;;29.60;90.60;;;;;;5050366;28;21040;-70
2022/06/16 10:21:34;;;;;;;6.67;5.97;;;30.00;89.60;;;;;;5049265;28;20472;-70
2022/06/16 10:24:02;;;;;;;6.17;5.67;;;30.10;87.90;;;;;;5049937;28;20553;-69
2022/06/16 10:26:29;;;;;;;6.23;5.73;;;30.20;88.60;;;;;;5049416;28;20444;-71
2022/06/16 10:29:07;;;;;;;6.57;5.27;;;30.20;86.50;;;;;;5050581;28;20455;-70
2022/06/16 10:31:38;;;;;;;5.80;5.20;;;30.10;86.40;;;;;;5049645;28;20468;-69
2022/06/16 10:34:26;;;;;;;4.97;4.47;;;30.00;87.30;;;;;;5050483;28;20471;-70
2022/06/16 10:37:00;;;;;;;6.33;5.43;;;30.20;86.80;;;;;;5050604;28;20517;-70
2022/06/16 10:39:36;;;;;;;6.70;5.40;;;30.60;83.30;;;;;;5050326;28;20448;-69
2022/06/16 10:42:12;;;;;;;5.50;5.00;;;30.80;79.40;;;;;;5049282;28;20479;-72
2022/06/16 10:44:39;;;;;;;6.13;5.03;;;30.80;82.50;;;;;;5049518;28;20827;-70
2022/06/16 10:47:16;;;;;;;5.30;4.80;;;30.50;81.80;;;;;;5049791;28;20454;-70
2022/06/16 10:49:47;;;;;;;5.57;4.87;;;30.20;84.50;;;;;;5049955;28;20458;-71
2022/06/16 10:52:26;;;;;;;5.50;5.00;;;30.30;82.90;;;;;;5049991;28;20490;-70
2022/06/16 10:54:59;;;;;;;6.30;5.40;;;30.10;83.50;;;;;;5049420;28;20440;-69
2022/06/16 10:57:30;;;;;;;7.53;5.50;;;30.10;83.50;;;;;;5049976;28;21068;-70
2022/06/16 11:00:02;;;;;;;5.10;4.60;;;30.10;83.40;;;;;;5048971;28;20448;-70
2022/06/16 11:02:32;;;;;;;8.53;4.90;;;30.00;82.90;;;;;;5049443;28;20759;-69
2022/06/16 11:05:04;;;;;;;6.97;5.13;;;30.10;82.20;;;;;;5049040;28;20440;-73
2022/06/16 11:07:38;;;;;;;7.90;5.27;;;30.00;82.30;;;;;;5049210;28;20452;-69
2022/06/16 11:10:08;;;;;;;10.07;4.77;;;30.00;82.80;;;;;;5048693;28;20452;-69
2022/06/16 11:12:38;;;;;;;5.50;5.00;;;30.50;83.10;;;;;;5049561;28;20473;-70
2022/06/16 11:15:15;;;;;;;9.07;5.03;;;30.60;81.40;;;;;;5049119;28;20444;-68
2022/06/16 11:17:47;;;;;;;7.17;5.97;;;30.40;79.40;;;;;;5049481;28;20448;-70
2022/06/16 11:20:34;;;;;;;6.30;5.33;;;30.40;82.00;;;;;;5048495;28;20451;-70
2022/06/16 11:23:01;;;;;;;6.63;5.40;;;30.60;79.60;;;;;;5049471;28;20584;-69
2022/06/16 11:25:31;;;;;;;5.43;4.80;;;30.70;77.90;;;;;;5049125;28;20448;-70
2022/06/16 11:28:01;;;;;;;5.83;4.20;;;30.50;77.00;;;;;;5049525;28;20444;-70
2022/06/16 11:30:35;;;;;;;7.50;4.70;;;30.40;77.60;;;;;;5048537;28;20444;-70
2022/06/16 11:33:03;;;;;;;5.83;4.50;;;30.80;79.40;;;;;;5050102;28;20461;-72
2022/06/16 11:35:40;;;;;;;5.70;4.90;;;31.00;77.00;;;;;;5049559;28;20892;-70
2022/06/16 11:38:15;;;;;;;5.60;4.50;;;31.30;78.20;;;;;;5049725;28;20455;-69
2022/06/16 11:40:48;;;;;;;5.90;4.20;;;31.10;72.40;;;;;;5052645;28;20447;-70
2022/06/16 11:43:48;;;;;;;9.70;4.40;;;31.00;74.50;;;;;;5052963;28;20514;-69
2022/06/16 11:46:20;;;;;;;5.20;4.70;;;30.80;74.70;;;;;;5046237;28;20957;-70
2022/06/16 11:49:03;;;;;;;9.60;5.73;;;30.80;73.90;;;;;;5053353;28;20448;-68
2022/06/16 11:51:40;;;;;;;5.10;4.37;;;30.90;73.90;;;;;;5052240;28;20465;-71
2022/06/16 11:54:22;;;;;;;6.53;4.20;;;30.90;73.40;;;;;;5053460;28;20431;-70
2022/06/16 11:57:00;;;;;;;4.70;4.30;;;30.80;71.60;;;;;;5053032;28;20440;-70
2022/06/16 11:59:56;;;;;;;5.40;4.17;;;30.70;70.70;;;;;;5053080;28;20823;-70
2022/06/16 12:02:35;;;;;;;4.50;4.10;;;30.50;72.90;;;;;;5052653;28;21011;-70
2022/06/16 12:05:19;;;;;;;5.53;4.97;;;30.90;71.70;;;;;;5052499;28;20956;-70
2022/06/16 12:08:01;;;;;;;5.27;4.73;;;31.20;71.10;;;;;;5052682;28;20843;-70
2022/06/16 12:10:35;;;;;;;5.07;3.80;;;31.30;69.50;;;;;;5052020;28;20476;-69
2022/06/16 12:13:11;;;;;;;6.90;4.53;;;31.20;70.70;;;;;;5052536;28;20860;-70
2022/06/16 12:15:44;;;;;;;5.70;4.13;;;31.60;68.80;;;;;;5052181;28;20443;-69
2022/06/16 12:18:26;;;;;;;5.37;4.17;;;31.80;68.40;;;;;;5052335;28;20501;-71
2022/06/16 12:21:02;;;;;;;8.83;4.43;;;31.90;67.70;;;;;;5051431;28;20454;-71
2022/06/16 12:23:39;;;;;;;5.80;4.53;;;31.70;67.40;;;;;;5052393;28;20479;-71
2022/06/16 12:26:10;;;;;;;4.60;4.20;;;31.30;67.30;;;;;;5051858;28;20451;-70
2022/06/16 12:28:42;;;;;;;6.00;4.47;;;31.10;66.70;;;;;;5052354;28;20463;-70
2022/06/16 12:31:16;;;;;;;4.57;4.13;;;31.10;67.90;;;;;;5051330;28;20464;-70
2022/06/16 12:33:52;;;;;;;8.67;4.10;;;31.70;67.40;;;;;;5052120;28;20930;-71
2022/06/16 12:36:25;;;;;;;4.53;4.13;;;32.10;66.90;;;;;;5051802;28;20436;-70
2022/06/16 12:38:59;;;;;;;6.10;4.60;;;32.00;65.70;;;;;;5052005;28;20447;-71
2022/06/16 12:41:30;;;;;;;7.77;4.50;;;31.90;64.80;;;;;;5051098;28;20460;-70
2022/06/16 12:44:01;;;;;;;5.00;3.93;;;31.80;66.10;;;;;;5052009;28;20483;-70
2022/06/16 12:46:32;;;;;;;5.70;4.00;;;32.10;64.00;;;;;;5051694;28;20452;-70
2022/06/16 12:49:05;;;;;;;6.03;4.17;;;32.40;64.10;;;;;;5051835;28;20542;-71
2022/06/16 12:51:38;;;;;;;6.10;4.10;;;32.70;61.90;;;;;;5050863;28;20467;-69
2022/06/16 12:54:11;;;;;;;10.10;3.90;;;32.40;61.00;;;;;;5051741;28;20836;-69
2022/06/16 12:56:45;;;;;;;7.07;4.57;;;32.40;61.70;;;;;;5051567;28;20531;-70
2022/06/16 12:59:19;;;;;;;6.63;3.90;;;32.60;63.70;;;;;;5051669;28;20921;-70
2022/06/16 13:01:50;;;;;;;5.77;4.33;;;32.90;60.60;;;;;;5050901;28;20471;-70
2022/06/16 13:04:24;;;;;;;5.73;4.10;;;32.80;58.40;;;;;;5051208;28;20929;-70
2022/06/16 13:06:52;;;;;;;5.03;3.67;;;32.70;58.50;;;;;;5051494;28;20465;-71
2022/06/16 13:09:20;;;;;;;5.30;3.90;;;32.60;56.10;;;;;;5051214;28;20470;-70
2022/06/16 13:11:53;;;;;;;9.57;5.13;;;32.50;56.50;;;;;;5050464;28;20910;-69
2022/06/16 13:14:23;;;;;;;5.50;4.30;;;32.80;57.10;;;;;;5050952;28;20495;-69
2022/06/16 13:16:53;;;;;;;4.60;4.20;;;32.70;57.30;;;;;;5051226;28;20466;-70
2022/06/16 13:19:23;;;;;;;6.57;5.07;;;32.20;58.20;;;;;;5051361;28;20443;-70